»·PEaware :: N915TB 3W7-KCLM

N915TB :: 3W7-KCLM

FLIGHT INFORMATION

Flight Status: Arrived
Operator: Privately registered:
United States
More flights under this callsign
Pilot: Jake M. (20491)
Aircraft: SOCATA TBM-900
(TBM9)
More flights by this aircraft type
Origin: 3W7 Grand Coulee Dam
United States
Destination: KCLM Fairchild Intl
United States
More flights between these airports :: More routes between these airports
Route: EPH J12 SEA V495 JAWBN
File this flight plan on PilotEdge
Remarks:
Altitude:
(Current/Filed)
23,000ft
Speed:
(Current/Filed)
300kts
Departed: 16-Oct-19 02:26 PM
Arrived: 16-Oct-19 03:41 PM
Distance/Time
Traveled:
178nm/1:15
Distance/Time
To Go:
Arrived

Flight Plot

Page will automatically refresh every two minutes.

Flight plan parsing failed; only flown route is shown


Map Options




Map Legend


Flown Route
Filed Route
Departure Airport
Arrival Airport
Navaid (VOR, NDB)
Fix

Horizontal Profiles

Position Reports

Time Latitude Longitude Heading Altitude Ground
Speed
16-Oct-19 14:15 47.920244 -119.083809 324 1590ft 0kts
16-Oct-19 14:16 47.920244 -119.083809 324 1590ft 0kts
16-Oct-19 14:16 47.920244 -119.083809 324 1590ft 0kts
16-Oct-19 14:17 47.920244 -119.083809 324 1590ft 0kts
16-Oct-19 14:19 47.920244 -119.083809 324 1590ft 0kts
16-Oct-19 14:19 47.920245 -119.083809 324 1590ft 0kts
16-Oct-19 14:20 47.920245 -119.083809 324 1590ft 0kts
16-Oct-19 14:21 47.920245 -119.083809 324 1590ft 0kts
16-Oct-19 14:23 47.920245 -119.083809 324 1590ft 0kts
16-Oct-19 14:23 47.920245 -119.083809 324 1590ft 0kts
16-Oct-19 14:24 47.920874 -119.084808 333 1590ft 7kts
16-Oct-19 14:25 47.935680 -119.056337 58 2381ft 129kts
16-Oct-19 14:26 47.922724 -119.015363 172 4178ft 142kts
16-Oct-19 14:27 47.886161 -119.035143 206 6190ft 143kts
16-Oct-19 14:28 47.850636 -119.062577 207 8045ft 144kts
16-Oct-19 14:29 47.815172 -119.089904 209 10154ft 142kts
16-Oct-19 14:30 47.781837 -119.115582 212 12264ft 137kts
16-Oct-19 14:31 47.747296 -119.142264 211 14337ft 140kts
16-Oct-19 14:32 47.712270 -119.169195 211 16264ft 141kts
16-Oct-19 14:33 47.676615 -119.196550 210 17989ft 143kts
16-Oct-19 14:34 47.640104 -119.224487 211 19750ft 149kts
16-Oct-19 14:35 47.602990 -119.252860 211 21602ft 150kts
16-Oct-19 14:36 47.563263 -119.283237 211 22874ft 174kts
16-Oct-19 14:37 47.511847 -119.322459 210 22881ft 227kts
16-Oct-19 14:38 47.451969 -119.367924 210 22900ft 246kts
16-Oct-19 14:39 47.389816 -119.416465 215 22691ft 249kts
16-Oct-19 14:40 47.380825 -119.516878 265 22731ft 254kts
16-Oct-19 14:41 47.384137 -119.620225 265 22928ft 249kts
16-Oct-19 14:42 47.387231 -119.722552 264 22865ft 255kts
16-Oct-19 14:43 47.390339 -119.827773 264 22863ft 256kts
16-Oct-19 14:44 47.393340 -119.932943 264 22862ft 256kts
16-Oct-19 14:45 47.395872 -120.023648 264 22861ft 256kts
16-Oct-19 14:46 47.398672 -120.128818 264 22860ft 256kts
16-Oct-19 14:47 47.401402 -120.234205 264 22858ft 256kts
16-Oct-19 14:48 47.404033 -120.339515 264 22857ft 255kts
16-Oct-19 14:49 47.406564 -120.444673 263 22856ft 255kts
16-Oct-19 14:50 47.408984 -120.549243 263 22855ft 254kts
16-Oct-19 14:51 47.411246 -120.650770 262 22805ft 239kts
16-Oct-19 14:52 47.412783 -120.723665 262 22869ft 253kts
16-Oct-19 14:53 47.414979 -120.828947 262 22862ft 258kts
16-Oct-19 14:54 47.417088 -120.935445 262 22860ft 259kts
16-Oct-19 14:55 47.419088 -121.041836 262 22850ft 259kts
16-Oct-19 14:56 47.420966 -121.146736 262 22836ft 259kts
16-Oct-19 14:57 47.422772 -121.252911 262 22827ft 260kts
16-Oct-19 14:58 47.424480 -121.359574 262 22826ft 261kts
16-Oct-19 14:59 47.426102 -121.466665 262 22824ft 261kts
16-Oct-19 15:00 47.427623 -121.573493 261 22823ft 260kts
16-Oct-19 15:01 47.429016 -121.678747 261 22831ft 260kts
16-Oct-19 15:02 47.430307 -121.784618 261 22157ft 267kts
16-Oct-19 15:03 47.431572 -121.893846 261 21014ft 269kts
16-Oct-19 15:04 47.432699 -122.002018 261 19832ft 269kts
16-Oct-19 15:05 47.433739 -122.110750 261 18647ft 270kts
16-Oct-19 15:06 47.434681 -122.221945 261 17440ft 272kts
16-Oct-19 15:07 47.453077 -122.328400 317 16149ft 324kts
16-Oct-19 15:08 47.530653 -122.394006 320 15002ft 324kts
16-Oct-19 15:09 47.606713 -122.461493 321 13811ft 321kts
16-Oct-19 15:10 47.682130 -122.528683 321 12621ft 316kts
16-Oct-19 15:11 47.754253 -122.593193 321 11436ft 307kts
16-Oct-19 15:12 47.823734 -122.655542 321 10289ft 304kts
16-Oct-19 15:13 47.894710 -122.719362 322 9110ft 293kts
16-Oct-19 15:14 47.958006 -122.776502 322 8040ft 290kts
16-Oct-19 15:15 48.020082 -122.832731 322 7970ft 266kts
16-Oct-19 15:16 48.084706 -122.891350 322 7975ft 260kts
16-Oct-19 15:17 48.140918 -122.942528 322 7962ft 258kts
16-Oct-19 15:18 48.205275 -123.001281 322 7956ft 258kts
16-Oct-19 15:19 48.224963 -123.079287 251 7940ft 199kts
16-Oct-19 15:20 48.216395 -123.149123 250 7936ft 187kts
16-Oct-19 15:21 48.206959 -123.224473 250 7949ft 196kts
16-Oct-19 15:22 48.197364 -123.300931 250 7943ft 199kts
16-Oct-19 15:23 48.188045 -123.374749 249 7995ft 198kts
16-Oct-19 15:24 48.177620 -123.456792 249 7995ft 200kts
16-Oct-19 15:25 48.165182 -123.553868 250 7439ft 242kts
16-Oct-19 15:26 48.151835 -123.657633 249 6739ft 253kts
16-Oct-19 15:27 48.165531 -123.763132 273 6693ft 257kts
16-Oct-19 15:28 48.182574 -123.867061 273 6696ft 253kts
16-Oct-19 15:29 48.198921 -123.962205 274 6413ft 235kts
16-Oct-19 15:30 48.214136 -124.048762 274 5529ft 228kts
16-Oct-19 15:31 48.263439 -124.065748 60 4721ft 244kts
16-Oct-19 15:32 48.244911 -123.990798 135 4726ft 211kts
16-Oct-19 15:33 48.204120 -123.917257 135 4703ft 228kts
16-Oct-19 15:34 48.175570 -123.827592 108 3774ft 256kts
16-Oct-19 15:35 48.159372 -123.730323 108 3196ft 214kts
16-Oct-19 15:36 48.145766 -123.652847 107 2174ft 174kts
16-Oct-19 15:37 48.134333 -123.587591 106 1305ft 134kts
16-Oct-19 15:38 48.126415 -123.542323 106 736ft 90kts
16-Oct-19 15:39 48.120252 -123.507022 103 265ft 73kts
16-Oct-19 15:40 48.117553 -123.498169 238 269ft 10kts
16-Oct-19 15:41 48.117499 -123.500938 290 268ft 0kts
16-Oct-19 15:42 48.117499 -123.500938 290 268ft 0kts
16-Oct-19 15:43 48.117499 -123.500938 290 268ft 0kts
16-Oct-19 15:44 48.117499 -123.500938 290 268ft 0kts
16-Oct-19 15:45 48.117499 -123.500938 290 268ft 0kts
16-Oct-19 15:46 48.117499 -123.500938 290 268ft 0kts
16-Oct-19 15:47 48.117499 -123.500938 290 268ft 0kts
16-Oct-19 15:48 48.117499 -123.500938 290 268ft 0kts

Navigation Log

Ident Type
Flight plan parsing failed, navigation log unavailable